Aérodrome :
LOGIN :

S'inscrire | Disclaimer

   EN    FR    IT 

 










Légende :    VFR   VFR Marginal   IFR   IFR Intensif   IFR Très Intensif
Visi : 
Plafond : 
>= 8 km
>= 3000ft
5 à 8 km
1000 à 3000 ft
1500m à 5 km
500 à 1000 ft
800 à 1500m
200 à 500 ft
< 800m
< 200 ft
Symboles :   Orages  Brouillard  Fortes neiges  Fortes précipitations  Vent > 20 kt
SIGMETs :   Divers  Orages  Givrage  Turbulence  Onde Orograph.  Cendres Volcan.






- Altitude de l'aérodrome : 405 ft
- Code IATA : ODH


EGVO - RAF Odiham

DERNIER METAR :
  • 241920Z 25009KT CAVOK 14/05 Q1010 NOSIG RMK BLU BLU

METARs EXPIRÉS :
  • 241850Z 26011KT CAVOK 15/05 Q1009 NOSIG RMK BLU BLU
  • 241820Z 27011KT CAVOK 16/04 Q1009 NOSIG RMK BLU BLU
  • 241750Z 27012KT CAVOK 17/05 Q1009 NOSIG RMK BLU BLU
  • 241720Z 27013KT CAVOK 17/05 Q1008 NOSIG RMK BLU BLU
  • 241650Z 28013KT CAVOK 17/05 Q1008 NOSIG RMK BLU BLU

TAF TAF EGVO
Valide du 24 à 18h jusqu'au 25 à 06h UTC


241649Z 2418/2506 26010KT 9999 SCT040



MET'MAP, la Météo Aéronautique d'un coup d'oeil ! - Copyright ORBIFLY Décembre 2007 - Disclaimer

ORBIFLY MET'MAP TEAM :

Programmation & Développement : Alexandra Zaïnal
Sur une idée originale de : Baudouin d'Aumeries
Soutien technique & logistique : Manuel Goepfert
Assistance : Marc-Olivier Méhu

Contact : metmap@orbifly.com




SOURCES & CREDITS :

   NOAA